Westborough, MA (01581)

11:32 AM EDT on August 22, 2014 (GMT -0400)
Crownridge Estates | Change Station
CLOSE
Current Station
Personal Weather Station
Location: Westborough, MA
Elevation: 450 ft
Nearby Weather Stations

Elev 450 ft 42.24 °N, 71.60 °W | Updated 1 second ago

Overcast
Overcast
65.3 °F
Feels Like 65.3 °F
N
0.0
Wind Variable Wind from NNE
Gusts 4.0 mph

Today
High -- | Low -- °F
--% Chance of Precip.
Yesterday
High -- | Low -- °F
Precip. -- in
6:01 AM 7:36 PM
Waning Crescent, 8% visible
Pressure 30.12 in
Visibility 10.0 miles
Clouds Mostly Cloudy 600 ft
Overcast 1200 ft
Dew Point 64 °F
Humidity 96%
Rainfall 0.11 in
Snow Depth Not available.
UV 3 out of 12
Pollen 4.50 out of 12
Air Quality Not available.
Flu Activity Not available.
SPECI KORH 221527Z 06007KT 10SM BKN006 OVC012 17/16 A3012 RMK AO2 CIG 003V009 T01720156

More Conditions Fewer Conditions

Pressure 30.12 in
Visibility 10.0 miles
Clouds Mostly Cloudy 600 ft
Overcast 1200 ft
Dew Point 64 °F
Humidity 96%
Rainfall 0.11 in
Snow Depth Not available.
UV 3 out of 12
Pollen 4.50 out of 12
Air Quality Not available.
Flu Activity Not available.
SPECI KORH 221527Z 06007KT 10SM BKN006 OVC012 17/16 A3012 RMK AO2 CIG 003V009 T01720156

More Conditions Fewer Conditions

10-Day Weather Forecast

Almanac

Astronomy

Aug. 22, 2014 Rise Set
Actual Time 6:01 AM EDT 7:36 PM EDT
Civil Twilight 5:31 AM EDT 8:06 PM EDT
Nautical Twilight 4:55 AM EDT 8:41 PM EDT
Astronomical Twilight 4:17 AM EDT 9:19 PM EDT
Moon 3:19 AM EDT 5:44 PM EDT
Length of Visible Light 14h 34m
Length of Day
13h 35m
Tomorrow will be 2m 37s shorter.
Waning Crescent, 8% of the Moon is Illuminated
Today
Waning Crescent
Aug 25
New
Sep 2
First Quarter
Sep 8
Full
Sep 15
Last Quarter

Today's Extremes

State Highs State Lows

Community

WunderPhotos

Upload Photos

1,746,188 photos uploaded!

WunderBlogs® & News

Nearby

Air Quality

  Air Quality AQ Index Pollutant
Friday Good
PM2.5
Friday Good
OZONE

Snow Depth

Station Depth Elevation
No new snow has been reported.

Earthquake Activity

City Distance Mag. Time & Date
No recent earthquake activity has been reported nearby.
Minimum magnitude displayed is 2.5.

Coastal Water Temperatures

Place Temperature
No Stations Reporting

Nearby Weather Stations